sensor_id;sensor_type;location;lat;lon;timestamp;pressure;altitude;pressure_sealevel;temperature;humidity
66398;BME280;54877;51.504;3.894;2023-04-20T00:00:02;102391.44;;;11.48;42.85
66398;BME280;54877;51.504;3.894;2023-04-20T00:02:35;102379.13;;;11.45;42.92
66398;BME280;54877;51.504;3.894;2023-04-20T00:05:00;102380.22;;;11.38;43.23
66398;BME280;54877;51.504;3.894;2023-04-20T00:07:26;102379.72;;;11.24;42.97
66398;BME280;54877;51.504;3.894;2023-04-20T00:09:53;102374.41;;;11.24;42.31
66398;BME280;54877;51.504;3.894;2023-04-20T00:12:18;102374.72;;;11.13;42.10
66398;BME280;54877;51.504;3.894;2023-04-20T00:14:44;102368.81;;;11.04;41.87
66398;BME280;54877;51.504;3.894;2023-04-20T00:17:09;102366.81;;;11.12;41.37
66398;BME280;54877;51.504;3.894;2023-04-20T00:19:34;102366.94;;;11.07;40.61
66398;BME280;54877;51.504;3.894;2023-04-20T00:22:00;102369.63;;;11.06;41.17
66398;BME280;54877;51.504;3.894;2023-04-20T00:24:25;102365.06;;;11.11;41.26
66398;BME280;54877;51.504;3.894;2023-04-20T00:26:51;102360.59;;;11.13;41.45
66398;BME280;54877;51.504;3.894;2023-04-20T00:29:16;102361.94;;;10.97;41.52
66398;BME280;54877;51.504;3.894;2023-04-20T00:31:41;102361.69;;;11.06;41.48
66398;BME280;54877;51.504;3.894;2023-04-20T00:34:07;102358.22;;;11.04;41.48
66398;BME280;54877;51.504;3.894;2023-04-20T00:36:32;102361.69;;;11.06;41.81
66398;BME280;54877;51.504;3.894;2023-04-20T00:38:57;102359.84;;;11.08;42.10
66398;BME280;54877;51.504;3.894;2023-04-20T00:41:23;102350.19;;;11.07;42.34
66398;BME280;54877;51.504;3.894;2023-04-20T00:43:49;102347.94;;;10.92;42.14
66398;BME280;54877;51.504;3.894;2023-04-20T00:46:15;102348.91;;;10.89;41.88
66398;BME280;54877;51.504;3.894;2023-04-20T00:48:41;102345.34;;;10.90;42.31
66398;BME280;54877;51.504;3.894;2023-04-20T00:51:06;102341.59;;;10.99;42.22
66398;BME280;54877;51.504;3.894;2023-04-20T00:53:33;102340.13;;;10.87;42.47
66398;BME280;54877;51.504;3.894;2023-04-20T00:55:58;102336.22;;;11.00;42.19
66398;BME280;54877;51.504;3.894;2023-04-20T00:58:23;102334.66;;;10.93;42.22
66398;BME280;54877;51.504;3.894;2023-04-20T01:00:49;102337.03;;;11.04;42.54
66398;BME280;54877;51.504;3.894;2023-04-20T01:03:14;102330.94;;;11.00;42.01
66398;BME280;54877;51.504;3.894;2023-04-20T01:05:40;102328.97;;;11.07;41.71
66398;BME280;54877;51.504;3.894;2023-04-20T01:08:05;102320.84;;;10.82;41.57
66398;BME280;54877;51.504;3.894;2023-04-20T01:10:31;102332.19;;;10.87;41.53
66398;BME280;54877;51.504;3.894;2023-04-20T01:12:56;102328.56;;;10.90;41.27
66398;BME280;54877;51.504;3.894;2023-04-20T01:15:22;102326.81;;;10.89;41.03
66398;BME280;54877;51.504;3.894;2023-04-20T01:17:47;102321.88;;;10.77;41.18
66398;BME280;54877;51.504;3.894;2023-04-20T01:20:13;102317.41;;;10.77;41.64
66398;BME280;54877;51.504;3.894;2023-04-20T01:25:14;102309.47;;;10.77;41.34
66398;BME280;54877;51.504;3.894;2023-04-20T01:27:40;102310.28;;;10.81;41.37
66398;BME280;54877;51.504;3.894;2023-04-20T01:30:06;102301.66;;;10.73;41.30
66398;BME280;54877;51.504;3.894;2023-04-20T01:32:31;102304.16;;;10.79;41.47
66398;BME280;54877;51.504;3.894;2023-04-20T01:34:57;102299.91;;;10.73;41.29
66398;BME280;54877;51.504;3.894;2023-04-20T01:37:23;102299.09;;;10.70;41.42
66398;BME280;54877;51.504;3.894;2023-04-20T01:39:48;102291.06;;;10.74;41.35
66398;BME280;54877;51.504;3.894;2023-04-20T01:42:14;102299.00;;;10.74;41.64
66398;BME280;54877;51.504;3.894;2023-04-20T01:44:39;102299.66;;;10.82;41.45
66398;BME280;54877;51.504;3.894;2023-04-20T01:47:04;102294.84;;;10.64;41.43
66398;BME280;54877;51.504;3.894;2023-04-20T01:49:30;102294.16;;;10.57;41.55
66398;BME280;54877;51.504;3.894;2023-04-20T01:51:55;102291.69;;;10.50;41.80
66398;BME280;54877;51.504;3.894;2023-04-20T01:54:21;102291.66;;;10.51;41.72
66398;BME280;54877;51.504;3.894;2023-04-20T01:56:46;102282.84;;;10.49;42.08
66398;BME280;54877;51.504;3.894;2023-04-20T01:59:12;102283.63;;;10.54;41.84
66398;BME280;54877;51.504;3.894;2023-04-20T02:01:37;102281.88;;;10.53;42.17
66398;BME280;54877;51.504;3.894;2023-04-20T02:04:02;102276.59;;;10.53;42.64
66398;BME280;54877;51.504;3.894;2023-04-20T02:06:28;102272.97;;;10.57;42.55
66398;BME280;54877;51.504;3.894;2023-04-20T02:08:53;102273.72;;;10.61;42.83
66398;BME280;54877;51.504;3.894;2023-04-20T02:11:18;102283.44;;;10.60;43.22
66398;BME280;54877;51.504;3.894;2023-04-20T02:13:45;102278.94;;;10.64;43.26
66398;BME280;54877;51.504;3.894;2023-04-20T02:16:11;102279.25;;;10.53;43.50
66398;BME280;54877;51.504;3.894;2023-04-20T02:18:36;102272.25;;;10.49;43.27
66398;BME280;54877;51.504;3.894;2023-04-20T02:21:02;102266.72;;;10.60;43.40
66398;BME280;54877;51.504;3.894;2023-04-20T02:23:27;102272.84;;;10.60;43.30
66398;BME280;54877;51.504;3.894;2023-04-20T02:25:53;102274.75;;;10.55;43.14
66398;BME280;54877;51.504;3.894;2023-04-20T02:28:18;102265.75;;;10.63;43.05
66398;BME280;54877;51.504;3.894;2023-04-20T02:30:43;102261.19;;;10.68;43.09
66398;BME280;54877;51.504;3.894;2023-04-20T02:33:09;102269.38;;;10.58;43.07
66398;BME280;54877;51.504;3.894;2023-04-20T02:35:34;102262.25;;;10.60;42.37
66398;BME280;54877;51.504;3.894;2023-04-20T02:38:00;102263.84;;;10.68;42.30
66398;BME280;54877;51.504;3.894;2023-04-20T02:40:25;102255.16;;;10.63;42.11
66398;BME280;54877;51.504;3.894;2023-04-20T02:42:50;102253.38;;;10.63;41.88
66398;BME280;54877;51.504;3.894;2023-04-20T02:45:16;102250.75;;;10.63;41.93
66398;BME280;54877;51.504;3.894;2023-04-20T02:47:41;102255.00;;;10.69;42.32
66398;BME280;54877;51.504;3.894;2023-04-20T02:50:07;102253.97;;;10.74;42.31
66398;BME280;54877;51.504;3.894;2023-04-20T02:52:33;102248.59;;;10.76;42.68
66398;BME280;54877;51.504;3.894;2023-04-20T02:54:58;102242.31;;;10.80;42.90
66398;BME280;54877;51.504;3.894;2023-04-20T02:57:24;102245.78;;;10.82;43.31
66398;BME280;54877;51.504;3.894;2023-04-20T02:59:50;102239.69;;;10.78;43.43
66398;BME280;54877;51.504;3.894;2023-04-20T03:02:15;102239.75;;;10.77;43.71
66398;BME280;54877;51.504;3.894;2023-04-20T03:04:40;102238.97;;;10.73;44.30
66398;BME280;54877;51.504;3.894;2023-04-20T03:07:06;102236.25;;;10.75;44.12
66398;BME280;54877;51.504;3.894;2023-04-20T03:09:33;102244.50;;;10.66;44.56
66398;BME280;54877;51.504;3.894;2023-04-20T03:11:59;102237.28;;;10.71;44.55
66398;BME280;54877;51.504;3.894;2023-04-20T03:14:26;102234.94;;;10.60;44.35
66398;BME280;54877;51.504;3.894;2023-04-20T03:16:51;102233.97;;;10.63;44.53
66398;BME280;54877;51.504;3.894;2023-04-20T03:19:17;102225.09;;;10.63;45.19
66398;BME280;54877;51.504;3.894;2023-04-20T03:21:43;102221.38;;;10.71;44.76
66398;BME280;54877;51.504;3.894;2023-04-20T03:24:09;102223.38;;;10.63;44.86
66398;BME280;54877;51.504;3.894;2023-04-20T03:26:34;102223.47;;;10.59;44.85
66398;BME280;54877;51.504;3.894;2023-04-20T03:29:00;102227.94;;;10.57;44.93
66398;BME280;54877;51.504;3.894;2023-04-20T03:31:25;102222.06;;;10.46;45.12
66398;BME280;54877;51.504;3.894;2023-04-20T03:33:51;102215.94;;;10.44;45.62
66398;BME280;54877;51.504;3.894;2023-04-20T03:36:16;102216.06;;;10.40;45.32
66398;BME280;54877;51.504;3.894;2023-04-20T03:38:42;102210.72;;;10.41;45.58
66398;BME280;54877;51.504;3.894;2023-04-20T03:41:07;102205.34;;;10.44;45.37
66398;BME280;54877;51.504;3.894;2023-04-20T03:43:33;102201.13;;;10.37;46.03
66398;BME280;54877;51.504;3.894;2023-04-20T03:45:58;102200.31;;;10.35;46.44
66398;BME280;54877;51.504;3.894;2023-04-20T03:48:23;102200.47;;;10.29;47.05
66398;BME280;54877;51.504;3.894;2023-04-20T03:50:49;102191.59;;;10.32;47.13
66398;BME280;54877;51.504;3.894;2023-04-20T03:53:15;102195.84;;;10.37;47.30
66398;BME280;54877;51.504;3.894;2023-04-20T03:55:40;102192.25;;;10.38;48.14
66398;BME280;54877;51.504;3.894;2023-04-20T03:58:06;102192.47;;;10.32;48.47
66398;BME280;54877;51.504;3.894;2023-04-20T04:00:31;102190.69;;;10.33;48.88
66398;BME280;54877;51.504;3.894;2023-04-20T04:02:57;102185.34;;;10.34;49.18
66398;BME280;54877;51.504;3.894;2023-04-20T04:05:23;102183.50;;;10.36;49.32
66398;BME280;54877;51.504;3.894;2023-04-20T04:07:49;102187.03;;;10.37;49.65
66398;BME280;54877;51.504;3.894;2023-04-20T04:10:14;102186.97;;;10.38;49.88
66398;BME280;54877;51.504;3.894;2023-04-20T04:12:41;102178.19;;;10.36;50.17
66398;BME280;54877;51.504;3.894;2023-04-20T04:15:07;102184.22;;;10.43;50.11
66398;BME280;54877;51.504;3.894;2023-04-20T04:17:33;102173.63;;;10.43;50.31
66398;BME280;54877;51.504;3.894;2023-04-20T04:19:58;102179.78;;;10.43;50.59
66398;BME280;54877;51.504;3.894;2023-04-20T04:22:23;102181.56;;;10.43;51.01
66398;BME280;54877;51.504;3.894;2023-04-20T04:24:49;102175.56;;;10.36;51.73
66398;BME280;54877;51.504;3.894;2023-04-20T04:27:14;102172.16;;;10.33;52.09
66398;BME280;54877;51.504;3.894;2023-04-20T04:29:40;102175.56;;;10.36;52.12
66398;BME280;54877;51.504;3.894;2023-04-20T04:32:05;102169.44;;;10.34;52.06
66398;BME280;54877;51.504;3.894;2023-04-20T04:34:32;102167.19;;;10.51;51.79
66398;BME280;54877;51.504;3.894;2023-04-20T04:36:58;102166.50;;;10.45;52.29
66398;BME280;54877;51.504;3.894;2023-04-20T04:39:25;102162.00;;;10.48;52.46
66398;BME280;54877;51.504;3.894;2023-04-20T04:41:52;102158.47;;;10.48;52.81
66398;BME280;54877;51.504;3.894;2023-04-20T04:44:17;102159.19;;;10.53;52.59
66398;BME280;54877;51.504;3.894;2023-04-20T04:46:42;102158.88;;;10.63;52.56
66398;BME280;54877;51.504;3.894;2023-04-20T04:49:11;102150.84;;;10.67;52.69
66398;BME280;54877;51.504;3.894;2023-04-20T04:51:37;102145.66;;;10.63;52.68
66398;BME280;54877;51.504;3.894;2023-04-20T04:54:02;102152.44;;;10.74;52.52
66398;BME280;54877;51.504;3.894;2023-04-20T04:56:27;102148.59;;;10.84;51.91
66398;BME280;54877;51.504;3.894;2023-04-20T04:58:53;102138.06;;;10.81;51.93
66398;BME280;54877;51.504;3.894;2023-04-20T05:01:18;102141.53;;;10.83;52.15
66398;BME280;54877;51.504;3.894;2023-04-20T05:03:45;102129.03;;;10.88;52.06
66398;BME280;54877;51.504;3.894;2023-04-20T05:06:10;102133.13;;;10.98;51.82
66398;BME280;54877;51.504;3.894;2023-04-20T05:08:36;102130.41;;;11.01;51.60
66398;BME280;54877;51.504;3.894;2023-04-20T05:11:01;102125.81;;;11.06;51.96
66398;BME280;54877;51.504;3.894;2023-04-20T05:13:26;102123.06;;;11.09;52.02
66398;BME280;54877;51.504;3.894;2023-04-20T05:15:52;102118.56;;;11.12;51.95
66398;BME280;54877;51.504;3.894;2023-04-20T05:18:17;102118.41;;;11.17;51.91
66398;BME280;54877;51.504;3.894;2023-04-20T05:20:42;102117.50;;;11.18;51.81
66398;BME280;54877;51.504;3.894;2023-04-20T05:23:08;102123.75;;;11.15;51.74
66398;BME280;54877;51.504;3.894;2023-04-20T05:25:33;102109.00;;;11.07;51.90
66398;BME280;54877;51.504;3.894;2023-04-20T05:27:58;102115.66;;;10.92;51.91
66398;BME280;54877;51.504;3.894;2023-04-20T05:30:24;102120.66;;;11.01;51.98
66398;BME280;54877;51.504;3.894;2023-04-20T05:32:49;102111.75;;;11.04;51.71
66398;BME280;54877;51.504;3.894;2023-04-20T05:35:15;102105.34;;;11.11;51.92
66398;BME280;54877;51.504;3.894;2023-04-20T05:37:40;102095.69;;;11.08;51.98
66398;BME280;54877;51.504;3.894;2023-04-20T05:40:06;102096.28;;;11.18;51.81
66398;BME280;54877;51.504;3.894;2023-04-20T05:42:31;102099.38;;;11.31;51.87
66398;BME280;54877;51.504;3.894;2023-04-20T05:44:57;102095.06;;;11.28;51.82
66398;BME280;54877;51.504;3.894;2023-04-20T05:47:22;102092.50;;;11.25;51.80
66398;BME280;54877;51.504;3.894;2023-04-20T05:49:47;102092.22;;;11.34;51.78
66398;BME280;54877;51.504;3.894;2023-04-20T05:52:13;102077.81;;;11.41;51.70
66398;BME280;54877;51.504;3.894;2023-04-20T05:54:38;102084.00;;;11.42;51.62
66398;BME280;54877;51.504;3.894;2023-04-20T05:57:03;102081.31;;;11.43;52.00
66398;BME280;54877;51.504;3.894;2023-04-20T05:59:29;102080.34;;;11.46;51.82
66398;BME280;54877;51.504;3.894;2023-04-20T06:01:55;102080.34;;;11.46;52.16
66398;BME280;54877;51.504;3.894;2023-04-20T06:04:20;102076.16;;;11.63;51.73
66398;BME280;54877;51.504;3.894;2023-04-20T06:06:46;102069.91;;;11.66;52.20
66398;BME280;54877;51.504;3.894;2023-04-20T06:09:11;102069.63;;;11.75;52.07
66398;BME280;54877;51.504;3.894;2023-04-20T06:11:37;102069.34;;;11.83;51.90
66398;BME280;54877;51.504;3.894;2023-04-20T06:14:02;102056.66;;;11.91;51.90
66398;BME280;54877;51.504;3.894;2023-04-20T06:16:27;102054.75;;;11.96;51.98
66398;BME280;54877;51.504;3.894;2023-04-20T06:18:53;102053.09;;;11.92;52.48
66398;BME280;54877;51.504;3.894;2023-04-20T06:21:18;102047.78;;;11.92;52.52
66398;BME280;54877;51.504;3.894;2023-04-20T06:23:44;102048.78;;;11.89;52.79
66398;BME280;54877;51.504;3.894;2023-04-20T06:26:09;102044.13;;;11.96;52.79
66398;BME280;54877;51.504;3.894;2023-04-20T06:28:35;102039.63;;;11.98;52.77
66398;BME280;54877;51.504;3.894;2023-04-20T06:31:02;102039.50;;;12.01;52.82
66398;BME280;54877;51.504;3.894;2023-04-20T06:33:28;102033.16;;;12.05;52.70
66398;BME280;54877;51.504;3.894;2023-04-20T06:35:53;102035.78;;;12.05;52.78
66398;BME280;54877;51.504;3.894;2023-04-20T06:38:20;102021.25;;;11.92;53.50
66398;BME280;54877;51.504;3.894;2023-04-20T06:40:49;102012.97;;;12.01;53.77
66398;BME280;54877;51.504;3.894;2023-04-20T06:43:15;102021.50;;;12.09;53.62
66398;BME280;54877;51.504;3.894;2023-04-20T06:45:40;102019.28;;;11.97;54.19
66398;BME280;54877;51.504;3.894;2023-04-20T06:48:05;102004.03;;;12.03;54.21
66398;BME280;54877;51.504;3.894;2023-04-20T06:50:31;102010.41;;;11.98;53.11
66398;BME280;54877;51.504;3.894;2023-04-20T06:52:56;102016.63;;;11.97;52.86
66398;BME280;54877;51.504;3.894;2023-04-20T06:55:22;102004.41;;;11.93;51.71
66398;BME280;54877;51.504;3.894;2023-04-20T06:57:47;102010.25;;;12.02;51.68
66398;BME280;54877;51.504;3.894;2023-04-20T07:00:13;101999.63;;;12.02;51.68
66398;BME280;54877;51.504;3.894;2023-04-20T07:02:45;102019.63;;;11.88;50.68
66398;BME280;54877;51.504;3.894;2023-04-20T07:05:13;102017.69;;;11.68;50.36
66398;BME280;54877;51.504;3.894;2023-04-20T07:07:39;101993.34;;;11.82;50.37
66398;BME280;54877;51.504;3.894;2023-04-20T07:10:09;102001.50;;;11.75;50.36
66398;BME280;54877;51.504;3.894;2023-04-20T07:12:37;101993.38;;;11.80;50.34
66398;BME280;54877;51.504;3.894;2023-04-20T07:15:04;102001.22;;;11.83;50.67
66398;BME280;54877;51.504;3.894;2023-04-20T07:17:30;101991.16;;;11.93;51.11
66398;BME280;54877;51.504;3.894;2023-04-20T07:19:56;102007.19;;;11.90;50.63
66398;BME280;54877;51.504;3.894;2023-04-20T07:22:23;101995.38;;;11.98;49.89
66398;BME280;54877;51.504;3.894;2023-04-20T07:24:49;101993.19;;;12.09;50.01
66398;BME280;54877;51.504;3.894;2023-04-20T07:27:15;102003.91;;;12.06;50.83
66398;BME280;54877;51.504;3.894;2023-04-20T07:29:40;101994.50;;;11.98;51.34
66398;BME280;54877;51.504;3.894;2023-04-20T07:32:06;102009.72;;;11.93;51.12
66398;BME280;54877;51.504;3.894;2023-04-20T07:34:31;101995.16;;;11.79;50.95
66398;BME280;54877;51.504;3.894;2023-04-20T07:36:56;101998.75;;;11.78;51.73
66398;BME280;54877;51.504;3.894;2023-04-20T07:39:21;101993.22;;;11.85;51.29
66398;BME280;54877;51.504;3.894;2023-04-20T07:41:49;101989.63;;;11.86;50.88
66398;BME280;54877;51.504;3.894;2023-04-20T07:44:14;101990.69;;;11.82;49.86
66398;BME280;54877;51.504;3.894;2023-04-20T07:46:39;101989.94;;;11.76;49.86
66398;BME280;54877;51.504;3.894;2023-04-20T07:49:05;101982.25;;;11.94;50.49
66398;BME280;54877;51.504;3.894;2023-04-20T07:51:31;101993.63;;;11.97;50.40
66398;BME280;54877;51.504;3.894;2023-04-20T07:53:58;101986.16;;;11.84;50.13
66398;BME280;54877;51.504;3.894;2023-04-20T07:56:23;101988.53;;;11.66;49.57
66398;BME280;54877;51.504;3.894;2023-04-20T07:58:49;101993.84;;;11.66;48.85
66398;BME280;54877;51.504;3.894;2023-04-20T08:01:14;102004.16;;;11.49;49.38
66398;BME280;54877;51.504;3.894;2023-04-20T08:03:39;101995.81;;;11.35;51.02
66398;BME280;54877;51.504;3.894;2023-04-20T08:06:05;101999.41;;;11.08;50.55
66398;BME280;54877;51.504;3.894;2023-04-20T08:08:31;102009.16;;;11.07;51.19
66398;BME280;54877;51.504;3.894;2023-04-20T08:10:56;102007.66;;;11.25;51.58
66398;BME280;54877;51.504;3.894;2023-04-20T08:13:25;102018.06;;;11.05;52.72
66398;BME280;54877;51.504;3.894;2023-04-20T08:15:51;102009.66;;;10.92;54.10
66398;BME280;54877;51.504;3.894;2023-04-20T08:18:16;102017.97;;;10.82;54.93
66398;BME280;54877;51.504;3.894;2023-04-20T08:20:42;102021.25;;;10.60;56.25
66398;BME280;54877;51.504;3.894;2023-04-20T08:23:07;102009.94;;;10.55;57.66
66398;BME280;54877;51.504;3.894;2023-04-20T08:25:32;102009.38;;;10.46;57.65
66398;BME280;54877;51.504;3.894;2023-04-20T08:27:58;102006.56;;;10.52;58.22
66398;BME280;54877;51.504;3.894;2023-04-20T08:30:23;102009.50;;;10.41;58.84
66398;BME280;54877;51.504;3.894;2023-04-20T08:32:48;102005.69;;;10.51;58.74
66398;BME280;54877;51.504;3.894;2023-04-20T08:35:14;102005.16;;;10.39;60.05
66398;BME280;54877;51.504;3.894;2023-04-20T08:37:39;101999.41;;;10.26;60.11
66398;BME280;54877;51.504;3.894;2023-04-20T08:40:06;102000.03;;;10.34;60.30
66398;BME280;54877;51.504;3.894;2023-04-20T08:42:31;101994.16;;;10.52;60.15
66398;BME280;54877;51.504;3.894;2023-04-20T08:44:57;101986.56;;;10.42;60.00
66398;BME280;54877;51.504;3.894;2023-04-20T08:47:23;102003.22;;;10.45;59.61
66398;BME280;54877;51.504;3.894;2023-04-20T08:49:51;101998.09;;;10.39;59.89
66398;BME280;54877;51.504;3.894;2023-04-20T08:52:18;102000.22;;;10.56;59.70
66398;BME280;54877;51.504;3.894;2023-04-20T08:54:44;101980.91;;;10.52;59.62
66398;BME280;54877;51.504;3.894;2023-04-20T08:57:09;102002.94;;;10.54;59.95
66398;BME280;54877;51.504;3.894;2023-04-20T08:59:35;101990.41;;;10.59;60.39
66398;BME280;54877;51.504;3.894;2023-04-20T09:02:11;101987.06;;;10.54;59.70
66398;BME280;54877;51.504;3.894;2023-04-20T09:04:38;101983.47;;;10.55;60.15
66398;BME280;54877;51.504;3.894;2023-04-20T09:07:04;101977.53;;;10.49;59.28
66398;BME280;54877;51.504;3.894;2023-04-20T09:09:30;101976.16;;;10.63;60.38
66398;BME280;54877;51.504;3.894;2023-04-20T09:12:05;101979.72;;;10.63;60.12
66398;BME280;54877;51.504;3.894;2023-04-20T09:14:42;101980.47;;;10.66;60.53
66398;BME280;54877;51.504;3.894;2023-04-20T09:17:09;101973.38;;;10.68;60.25
66398;BME280;54877;51.504;3.894;2023-04-20T09:19:38;101970.47;;;10.76;60.33
66398;BME280;54877;51.504;3.894;2023-04-20T09:22:03;101976.63;;;10.76;60.13
66398;BME280;54877;51.504;3.894;2023-04-20T09:24:33;101978.00;;;10.61;60.13
66398;BME280;54877;51.504;3.894;2023-04-20T09:27:15;101970.03;;;10.61;60.45
66398;BME280;54877;51.504;3.894;2023-04-20T09:29:43;101976.38;;;10.57;60.59
66398;BME280;54877;51.504;3.894;2023-04-20T09:32:21;101975.19;;;10.66;59.77
66398;BME280;54877;51.504;3.894;2023-04-20T09:34:47;101983.47;;;10.55;59.73
66398;BME280;54877;51.504;3.894;2023-04-20T09:37:16;101965.88;;;10.54;59.71
66398;BME280;54877;51.504;3.894;2023-04-20T09:39:44;101973.13;;;10.48;60.41
66398;BME280;54877;51.504;3.894;2023-04-20T09:42:11;101963.75;;;10.66;60.17
66398;BME280;54877;51.504;3.894;2023-04-20T09:44:37;101967.13;;;10.71;60.46
66398;BME280;54877;51.504;3.894;2023-04-20T09:47:03;101959.44;;;10.63;60.46
66398;BME280;54877;51.504;3.894;2023-04-20T09:49:30;101952.56;;;10.56;60.50
66398;BME280;54877;51.504;3.894;2023-04-20T09:51:56;101951.50;;;10.61;60.84
66398;BME280;54877;51.504;3.894;2023-04-20T09:54:25;101946.91;;;10.67;61.05
66398;BME280;54877;51.504;3.894;2023-04-20T09:56:50;101952.41;;;10.60;60.89
66398;BME280;54877;51.504;3.894;2023-04-20T09:59:17;101957.00;;;10.55;60.75
66398;BME280;54877;51.504;3.894;2023-04-20T10:01:43;101944.06;;;10.46;61.57
66398;BME280;54877;51.504;3.894;2023-04-20T10:04:09;101948.25;;;10.53;62.20
66398;BME280;54877;51.504;3.894;2023-04-20T10:06:35;101950.59;;;10.63;61.14
66398;BME280;54877;51.504;3.894;2023-04-20T10:09:02;101931.56;;;10.50;61.17
66398;BME280;54877;51.504;3.894;2023-04-20T10:14:01;101927.19;;;10.77;61.95
66398;BME280;54877;51.504;3.894;2023-04-20T10:16:40;101913.94;;;10.77;61.88
66398;BME280;54877;51.504;3.894;2023-04-20T10:19:05;101907.31;;;10.90;61.74
66398;BME280;54877;51.504;3.894;2023-04-20T10:21:31;101908.50;;;11.06;60.38
66398;BME280;54877;51.504;3.894;2023-04-20T10:23:57;101892.91;;;10.97;60.13
66398;BME280;54877;51.504;3.894;2023-04-20T10:26:37;101895.25;;;11.06;60.62
66398;BME280;54877;51.504;3.894;2023-04-20T10:29:05;101890.44;;;10.92;60.24
66398;BME280;54877;51.504;3.894;2023-04-20T10:31:37;101884.72;;;11.04;60.80
66398;BME280;54877;51.504;3.894;2023-04-20T10:34:03;101891.91;;;11.26;60.38
66398;BME280;54877;51.504;3.894;2023-04-20T10:36:30;101896.03;;;11.09;60.25
66398;BME280;54877;51.504;3.894;2023-04-20T10:38:58;101890.06;;;11.03;59.92
66398;BME280;54877;51.504;3.894;2023-04-20T10:41:26;101885.84;;;11.22;60.08
66398;BME280;54877;51.504;3.894;2023-04-20T10:43:51;101894.72;;;11.21;60.17
66398;BME280;54877;51.504;3.894;2023-04-20T10:46:18;101896.13;;;11.31;59.91
66398;BME280;54877;51.504;3.894;2023-04-20T10:51:19;101878.25;;;11.36;58.54
66398;BME280;54877;51.504;3.894;2023-04-20T10:53:45;101879.34;;;11.31;57.99
66398;BME280;54877;51.504;3.894;2023-04-20T10:56:10;101882.78;;;11.33;58.44
66398;BME280;54877;51.504;3.894;2023-04-20T10:58:35;101875.28;;;11.45;58.28
66398;BME280;54877;51.504;3.894;2023-04-20T11:01:04;101873.78;;;11.61;58.08
66398;BME280;54877;51.504;3.894;2023-04-20T11:03:30;101859.47;;;11.65;57.38
66398;BME280;54877;51.504;3.894;2023-04-20T11:05:58;101865.22;;;11.78;57.58
66398;BME280;54877;51.504;3.894;2023-04-20T11:08:37;101864.13;;;11.84;56.96
66398;BME280;54877;51.504;3.894;2023-04-20T11:11:04;101867.34;;;11.92;57.00
66398;BME280;54877;51.504;3.894;2023-04-20T11:13:30;101862.50;;;11.79;56.89
66398;BME280;54877;51.504;3.894;2023-04-20T11:15:56;101866.09;;;11.78;56.82
66398;BME280;54877;51.504;3.894;2023-04-20T11:18:22;101864.13;;;11.84;57.13
66398;BME280;54877;51.504;3.894;2023-04-20T11:20:51;101856.84;;;11.89;56.51
66398;BME280;54877;51.504;3.894;2023-04-20T11:23:19;101865.09;;;11.81;57.09
66398;BME280;54877;51.504;3.894;2023-04-20T11:25:55;101855.91;;;11.66;57.16
66398;BME280;54877;51.504;3.894;2023-04-20T11:28:21;101850.50;;;11.69;57.49
66398;BME280;54877;51.504;3.894;2023-04-20T11:30:47;101844.28;;;11.70;57.75
66398;BME280;54877;51.504;3.894;2023-04-20T11:33:13;101848.25;;;11.82;57.44
66398;BME280;54877;51.504;3.894;2023-04-20T11:35:40;101838.00;;;11.73;57.29
66398;BME280;54877;51.504;3.894;2023-04-20T11:38:07;101833.69;;;11.70;57.49
66398;BME280;54877;51.504;3.894;2023-04-20T11:40:33;101849.34;;;11.53;57.52
66398;BME280;54877;51.504;3.894;2023-04-20T11:42:59;101843.69;;;11.62;57.84
66398;BME280;54877;51.504;3.894;2023-04-20T11:45:25;101858.09;;;11.55;57.58
66398;BME280;54877;51.504;3.894;2023-04-20T11:47:51;101856.88;;;11.41;57.87
66398;BME280;54877;51.504;3.894;2023-04-20T11:50:18;101851.19;;;11.51;56.71
66398;BME280;54877;51.504;3.894;2023-04-20T11:52:45;101851.03;;;11.54;57.09
66398;BME280;54877;51.504;3.894;2023-04-20T11:55:10;101838.38;;;11.39;57.82
66398;BME280;54877;51.504;3.894;2023-04-20T11:57:36;101839.41;;;11.35;57.67
66398;BME280;54877;51.504;3.894;2023-04-20T12:00:01;101833.75;;;11.44;57.37
66398;BME280;54877;51.504;3.894;2023-04-20T12:02:28;101844.25;;;11.47;57.47
66398;BME280;54877;51.504;3.894;2023-04-20T12:04:53;101842.50;;;11.46;57.55
66398;BME280;54877;51.504;3.894;2023-04-20T12:07:19;101842.13;;;11.57;57.11
66398;BME280;54877;51.504;3.894;2023-04-20T12:09:46;101842.94;;;11.59;56.52
66398;BME280;54877;51.504;3.894;2023-04-20T12:12:11;101836.22;;;11.49;56.54
66398;BME280;54877;51.504;3.894;2023-04-20T12:14:36;101837.34;;;11.43;56.40
66398;BME280;54877;51.504;3.894;2023-04-20T12:17:02;101831.50;;;11.34;56.66
66398;BME280;54877;51.504;3.894;2023-04-20T12:19:29;101825.09;;;11.16;56.81
66398;BME280;54877;51.504;3.894;2023-04-20T12:21:55;101833.03;;;11.16;57.07
66398;BME280;54877;51.504;3.894;2023-04-20T12:24:21;101830.66;;;11.33;57.13
66398;BME280;54877;51.504;3.894;2023-04-20T12:26:46;101828.72;;;11.13;57.32
66398;BME280;54877;51.504;3.894;2023-04-20T12:29:12;101827.31;;;11.28;57.12
66398;BME280;54877;51.504;3.894;2023-04-20T12:31:37;101820.03;;;11.33;57.05
66398;BME280;54877;51.504;3.894;2023-04-20T12:34:02;101812.88;;;11.35;57.25
66398;BME280;54877;51.504;3.894;2023-04-20T12:36:28;101811.53;;;11.48;56.95
66398;BME280;54877;51.504;3.894;2023-04-20T12:38:53;101804.19;;;11.78;56.71
66398;BME280;54877;51.504;3.894;2023-04-20T12:41:20;101827.66;;;11.89;56.08
66398;BME280;54877;51.504;3.894;2023-04-20T12:43:46;101805.75;;;11.84;55.37
66398;BME280;54877;51.504;3.894;2023-04-20T12:46:12;101802.91;;;11.88;55.52
66398;BME280;54877;51.504;3.894;2023-04-20T12:48:37;101801.66;;;11.97;55.78
66398;BME280;54877;51.504;3.894;2023-04-20T12:51:02;101803.28;;;12.01;55.65